sensor_id;sensor_type;location;lat;lon;timestamp;P1;durP1;ratioP1;P2;durP2;ratioP2
11763;SDS011;5939;56.522;14.950;2022-11-20T00:00:24;2.60;;;2.00;;
11763;SDS011;5939;56.522;14.950;2022-11-20T00:02:50;2.80;;;1.80;;
11763;SDS011;5939;56.522;14.950;2022-11-20T00:05:15;4.07;;;2.33;;
11763;SDS011;5939;56.522;14.950;2022-11-20T00:07:42;3.00;;;1.80;;
11763;SDS011;5939;56.522;14.950;2022-11-20T00:10:08;2.33;;;1.63;;
11763;SDS011;5939;56.522;14.950;2022-11-20T00:12:34;2.00;;;1.80;;
11763;SDS011;5939;56.522;14.950;2022-11-20T00:14:59;1.80;;;1.60;;
11763;SDS011;5939;56.522;14.950;2022-11-20T00:17:25;1.87;;;1.73;;
11763;SDS011;5939;56.522;14.950;2022-11-20T00:19:51;2.00;;;1.80;;
11763;SDS011;5939;56.522;14.950;2022-11-20T00:22:16;2.10;;;1.90;;
11763;SDS011;5939;56.522;14.950;2022-11-20T00:24:42;1.77;;;1.53;;
11763;SDS011;5939;56.522;14.950;2022-11-20T00:27:08;2.47;;;1.80;;
11763;SDS011;5939;56.522;14.950;2022-11-20T00:29:33;1.93;;;1.70;;
11763;SDS011;5939;56.522;14.950;2022-11-20T00:31:59;1.60;;;1.50;;
11763;SDS011;5939;56.522;14.950;2022-11-20T00:34:25;1.70;;;1.53;;
11763;SDS011;5939;56.522;14.950;2022-11-20T00:36:50;1.80;;;1.70;;
11763;SDS011;5939;56.522;14.950;2022-11-20T00:39:16;2.37;;;1.67;;
11763;SDS011;5939;56.522;14.950;2022-11-20T00:41:42;1.83;;;1.60;;
11763;SDS011;5939;56.522;14.950;2022-11-20T00:44:07;1.67;;;1.47;;
11763;SDS011;5939;56.522;14.950;2022-11-20T00:46:33;1.80;;;1.50;;
11763;SDS011;5939;56.522;14.950;2022-11-20T00:48:59;1.90;;;1.60;;
11763;SDS011;5939;56.522;14.950;2022-11-20T00:51:25;2.23;;;1.60;;
11763;SDS011;5939;56.522;14.950;2022-11-20T00:53:54;2.83;;;1.93;;
11763;SDS011;5939;56.522;14.950;2022-11-20T00:56:21;2.17;;;1.80;;
11763;SDS011;5939;56.522;14.950;2022-11-20T00:58:47;2.37;;;1.80;;
11763;SDS011;5939;56.522;14.950;2022-11-20T01:01:15;2.20;;;1.97;;
11763;SDS011;5939;56.522;14.950;2022-11-20T01:03:48;2.50;;;1.87;;
11763;SDS011;5939;56.522;14.950;2022-11-20T01:06:16;3.00;;;1.87;;
11763;SDS011;5939;56.522;14.950;2022-11-20T01:08:45;2.10;;;1.73;;
11763;SDS011;5939;56.522;14.950;2022-11-20T01:11:15;1.93;;;1.70;;
11763;SDS011;5939;56.522;14.950;2022-11-20T01:13:44;2.10;;;1.80;;
11763;SDS011;5939;56.522;14.950;2022-11-20T01:16:12;2.63;;;1.80;;
11763;SDS011;5939;56.522;14.950;2022-11-20T01:18:41;2.10;;;1.87;;
11763;SDS011;5939;56.522;14.950;2022-11-20T01:21:12;2.00;;;1.80;;
11763;SDS011;5939;56.522;14.950;2022-11-20T01:23:40;1.97;;;1.77;;
11763;SDS011;5939;56.522;14.950;2022-11-20T01:26:29;1.50;;;1.40;;
11763;SDS011;5939;56.522;14.950;2022-11-20T01:28:55;2.03;;;1.83;;
11763;SDS011;5939;56.522;14.950;2022-11-20T01:31:31;1.70;;;1.60;;
11763;SDS011;5939;56.522;14.950;2022-11-20T01:33:59;2.50;;;2.10;;
11763;SDS011;5939;56.522;14.950;2022-11-20T01:36:30;1.63;;;1.53;;
11763;SDS011;5939;56.522;14.950;2022-11-20T01:38:59;2.50;;;1.73;;
11763;SDS011;5939;56.522;14.950;2022-11-20T01:41:30;1.60;;;1.50;;
11763;SDS011;5939;56.522;14.950;2022-11-20T01:44:17;2.10;;;1.70;;
11763;SDS011;5939;56.522;14.950;2022-11-20T01:46:52;1.97;;;1.70;;
11763;SDS011;5939;56.522;14.950;2022-11-20T01:49:30;1.87;;;1.67;;
11763;SDS011;5939;56.522;14.950;2022-11-20T01:52:20;2.03;;;1.80;;
11763;SDS011;5939;56.522;14.950;2022-11-20T01:54:51;1.80;;;1.70;;
11763;SDS011;5939;56.522;14.950;2022-11-20T01:57:33;1.83;;;1.53;;
11763;SDS011;5939;56.522;14.950;2022-11-20T02:00:05;1.97;;;1.73;;
11763;SDS011;5939;56.522;14.950;2022-11-20T02:02:33;1.97;;;1.50;;
11763;SDS011;5939;56.522;14.950;2022-11-20T02:05:00;1.67;;;1.57;;
11763;SDS011;5939;56.522;14.950;2022-11-20T02:07:32;2.90;;;1.80;;
11763;SDS011;5939;56.522;14.950;2022-11-20T02:09:58;2.00;;;1.77;;
11763;SDS011;5939;56.522;14.950;2022-11-20T02:12:23;2.60;;;1.83;;
11763;SDS011;5939;56.522;14.950;2022-11-20T02:15:08;2.33;;;1.50;;
11763;SDS011;5939;56.522;14.950;2022-11-20T02:17:34;1.80;;;1.60;;
11763;SDS011;5939;56.522;14.950;2022-11-20T02:20:00;2.00;;;1.70;;
11763;SDS011;5939;56.522;14.950;2022-11-20T02:22:31;1.70;;;1.60;;
11763;SDS011;5939;56.522;14.950;2022-11-20T02:25:04;2.07;;;1.70;;
11763;SDS011;5939;56.522;14.950;2022-11-20T02:27:32;1.90;;;1.70;;
11763;SDS011;5939;56.522;14.950;2022-11-20T02:30:02;2.13;;;1.73;;
11763;SDS011;5939;56.522;14.950;2022-11-20T02:32:30;2.80;;;1.77;;
11763;SDS011;5939;56.522;14.950;2022-11-20T02:34:58;1.70;;;1.60;;
11763;SDS011;5939;56.522;14.950;2022-11-20T02:37:32;2.07;;;1.77;;
11763;SDS011;5939;56.522;14.950;2022-11-20T02:40:05;1.50;;;1.40;;
11763;SDS011;5939;56.522;14.950;2022-11-20T02:42:31;2.40;;;1.60;;
11763;SDS011;5939;56.522;14.950;2022-11-20T02:44:57;1.90;;;1.80;;
11763;SDS011;5939;56.522;14.950;2022-11-20T02:47:22;1.90;;;1.70;;
11763;SDS011;5939;56.522;14.950;2022-11-20T02:49:48;3.13;;;1.73;;
11763;SDS011;5939;56.522;14.950;2022-11-20T02:52:13;1.60;;;1.50;;
11763;SDS011;5939;56.522;14.950;2022-11-20T02:54:39;2.00;;;1.80;;
11763;SDS011;5939;56.522;14.950;2022-11-20T02:57:04;1.77;;;1.67;;
11763;SDS011;5939;56.522;14.950;2022-11-20T02:59:30;1.87;;;1.50;;
11763;SDS011;5939;56.522;14.950;2022-11-20T03:01:56;2.17;;;1.97;;
11763;SDS011;5939;56.522;14.950;2022-11-20T03:04:21;1.97;;;1.83;;
11763;SDS011;5939;56.522;14.950;2022-11-20T03:06:47;2.27;;;2.07;;
11763;SDS011;5939;56.522;14.950;2022-11-20T03:09:13;1.73;;;1.63;;
11763;SDS011;5939;56.522;14.950;2022-11-20T03:11:38;2.00;;;1.70;;
11763;SDS011;5939;56.522;14.950;2022-11-20T03:14:04;1.90;;;1.60;;
11763;SDS011;5939;56.522;14.950;2022-11-20T03:16:30;2.70;;;1.90;;
11763;SDS011;5939;56.522;14.950;2022-11-20T03:18:57;2.20;;;1.90;;
11763;SDS011;5939;56.522;14.950;2022-11-20T03:21:23;2.13;;;1.93;;
11763;SDS011;5939;56.522;14.950;2022-11-20T03:23:49;1.80;;;1.70;;
11763;SDS011;5939;56.522;14.950;2022-11-20T03:26:15;2.17;;;1.70;;
11763;SDS011;5939;56.522;14.950;2022-11-20T03:28:48;1.87;;;1.70;;
11763;SDS011;5939;56.522;14.950;2022-11-20T03:31:16;1.90;;;1.70;;
11763;SDS011;5939;56.522;14.950;2022-11-20T03:33:43;2.07;;;1.87;;
11763;SDS011;5939;56.522;14.950;2022-11-20T03:36:10;1.97;;;1.80;;
11763;SDS011;5939;56.522;14.950;2022-11-20T03:38:37;2.43;;;1.87;;
11763;SDS011;5939;56.522;14.950;2022-11-20T03:41:04;2.13;;;1.70;;
11763;SDS011;5939;56.522;14.950;2022-11-20T03:43:50;2.40;;;1.80;;
11763;SDS011;5939;56.522;14.950;2022-11-20T03:46:17;1.90;;;1.80;;
11763;SDS011;5939;56.522;14.950;2022-11-20T03:48:43;2.20;;;2.00;;
11763;SDS011;5939;56.522;14.950;2022-11-20T03:51:09;1.90;;;1.77;;
11763;SDS011;5939;56.522;14.950;2022-11-20T03:53:35;1.80;;;1.70;;
11763;SDS011;5939;56.522;14.950;2022-11-20T03:56:01;3.20;;;2.40;;
11763;SDS011;5939;56.522;14.950;2022-11-20T03:58:27;2.20;;;1.90;;
11763;SDS011;5939;56.522;14.950;2022-11-20T04:00:53;2.30;;;2.00;;
11763;SDS011;5939;56.522;14.950;2022-11-20T04:03:18;2.03;;;1.87;;
11763;SDS011;5939;56.522;14.950;2022-11-20T04:05:44;2.03;;;1.93;;
11763;SDS011;5939;56.522;14.950;2022-11-20T04:08:10;2.30;;;2.10;;
11763;SDS011;5939;56.522;14.950;2022-11-20T04:10:35;3.10;;;2.40;;
11763;SDS011;5939;56.522;14.950;2022-11-20T04:13:01;4.17;;;2.20;;
11763;SDS011;5939;56.522;14.950;2022-11-20T04:15:26;2.00;;;1.80;;
11763;SDS011;5939;56.522;14.950;2022-11-20T04:17:53;2.57;;;2.07;;
11763;SDS011;5939;56.522;14.950;2022-11-20T04:20:19;2.37;;;2.00;;
11763;SDS011;5939;56.522;14.950;2022-11-20T04:22:45;2.30;;;2.00;;
11763;SDS011;5939;56.522;14.950;2022-11-20T04:25:10;1.80;;;1.70;;
11763;SDS011;5939;56.522;14.950;2022-11-20T04:27:36;2.40;;;2.17;;
11763;SDS011;5939;56.522;14.950;2022-11-20T04:30:01;3.03;;;2.23;;
11763;SDS011;5939;56.522;14.950;2022-11-20T04:32:27;2.33;;;2.00;;
11763;SDS011;5939;56.522;14.950;2022-11-20T04:34:53;2.30;;;2.10;;
11763;SDS011;5939;56.522;14.950;2022-11-20T04:37:18;2.83;;;2.33;;
11763;SDS011;5939;56.522;14.950;2022-11-20T04:39:44;2.43;;;2.10;;
11763;SDS011;5939;56.522;14.950;2022-11-20T04:42:10;2.00;;;1.80;;
11763;SDS011;5939;56.522;14.950;2022-11-20T04:44:54;2.07;;;1.87;;
11763;SDS011;5939;56.522;14.950;2022-11-20T04:47:20;3.10;;;2.20;;
11763;SDS011;5939;56.522;14.950;2022-11-20T04:49:46;2.73;;;1.93;;
11763;SDS011;5939;56.522;14.950;2022-11-20T04:52:11;2.30;;;2.10;;
11763;SDS011;5939;56.522;14.950;2022-11-20T04:54:37;2.70;;;2.33;;
11763;SDS011;5939;56.522;14.950;2022-11-20T04:57:03;2.60;;;2.13;;
11763;SDS011;5939;56.522;14.950;2022-11-20T04:59:29;2.13;;;1.97;;
11763;SDS011;5939;56.522;14.950;2022-11-20T05:01:54;2.87;;;2.20;;
11763;SDS011;5939;56.522;14.950;2022-11-20T05:04:20;2.07;;;1.87;;
11763;SDS011;5939;56.522;14.950;2022-11-20T05:06:46;3.13;;;2.30;;
11763;SDS011;5939;56.522;14.950;2022-11-20T05:09:12;2.33;;;2.00;;
11763;SDS011;5939;56.522;14.950;2022-11-20T05:11:38;2.30;;;2.00;;
11763;SDS011;5939;56.522;14.950;2022-11-20T05:14:03;3.10;;;2.30;;
11763;SDS011;5939;56.522;14.950;2022-11-20T05:16:29;2.40;;;2.20;;
11763;SDS011;5939;56.522;14.950;2022-11-20T05:18:55;3.00;;;2.70;;
11763;SDS011;5939;56.522;14.950;2022-11-20T05:21:20;2.33;;;2.00;;
11763;SDS011;5939;56.522;14.950;2022-11-20T05:23:47;2.70;;;2.10;;
11763;SDS011;5939;56.522;14.950;2022-11-20T05:26:22;3.03;;;2.73;;
11763;SDS011;5939;56.522;14.950;2022-11-20T05:28:47;3.03;;;2.17;;
11763;SDS011;5939;56.522;14.950;2022-11-20T05:31:15;3.17;;;2.10;;
11763;SDS011;5939;56.522;14.950;2022-11-20T05:33:43;2.30;;;2.10;;
11763;SDS011;5939;56.522;14.950;2022-11-20T05:36:10;2.97;;;2.47;;
11763;SDS011;5939;56.522;14.950;2022-11-20T05:38:39;2.50;;;1.90;;
11763;SDS011;5939;56.522;14.950;2022-11-20T05:41:10;3.20;;;2.20;;
11763;SDS011;5939;56.522;14.950;2022-11-20T05:43:38;3.73;;;2.67;;
11763;SDS011;5939;56.522;14.950;2022-11-20T05:46:05;4.90;;;3.03;;
11763;SDS011;5939;56.522;14.950;2022-11-20T05:48:32;3.80;;;2.97;;
11763;SDS011;5939;56.522;14.950;2022-11-20T05:50:59;2.77;;;2.47;;
11763;SDS011;5939;56.522;14.950;2022-11-20T05:53:25;2.63;;;2.37;;
11763;SDS011;5939;56.522;14.950;2022-11-20T05:56:01;3.20;;;2.83;;
11763;SDS011;5939;56.522;14.950;2022-11-20T05:58:37;3.10;;;2.77;;
11763;SDS011;5939;56.522;14.950;2022-11-20T06:01:07;3.50;;;2.60;;
11763;SDS011;5939;56.522;14.950;2022-11-20T06:03:38;4.37;;;3.07;;
11763;SDS011;5939;56.522;14.950;2022-11-20T06:06:04;3.07;;;2.77;;
11763;SDS011;5939;56.522;14.950;2022-11-20T06:08:31;3.40;;;3.10;;
11763;SDS011;5939;56.522;14.950;2022-11-20T06:10:57;3.67;;;2.90;;
11763;SDS011;5939;56.522;14.950;2022-11-20T06:13:23;3.13;;;2.80;;
11763;SDS011;5939;56.522;14.950;2022-11-20T06:15:50;4.03;;;3.10;;
11763;SDS011;5939;56.522;14.950;2022-11-20T06:18:19;3.27;;;2.70;;
11763;SDS011;5939;56.522;14.950;2022-11-20T06:20:45;3.07;;;2.77;;
11763;SDS011;5939;56.522;14.950;2022-11-20T06:23:11;3.50;;;3.10;;
11763;SDS011;5939;56.522;14.950;2022-11-20T06:25:41;2.70;;;2.50;;
11763;SDS011;5939;56.522;14.950;2022-11-20T06:28:07;2.97;;;2.70;;
11763;SDS011;5939;56.522;14.950;2022-11-20T06:30:34;3.00;;;2.63;;
11763;SDS011;5939;56.522;14.950;2022-11-20T06:33:00;3.20;;;2.90;;
11763;SDS011;5939;56.522;14.950;2022-11-20T06:35:25;3.00;;;2.70;;
11763;SDS011;5939;56.522;14.950;2022-11-20T06:37:51;3.00;;;2.70;;
11763;SDS011;5939;56.522;14.950;2022-11-20T06:40:17;2.80;;;2.60;;
11763;SDS011;5939;56.522;14.950;2022-11-20T06:42:42;2.80;;;2.43;;
11763;SDS011;5939;56.522;14.950;2022-11-20T06:45:08;2.83;;;2.50;;
11763;SDS011;5939;56.522;14.950;2022-11-20T06:47:34;3.20;;;2.77;;
11763;SDS011;5939;56.522;14.950;2022-11-20T06:49:59;2.60;;;2.40;;
11763;SDS011;5939;56.522;14.950;2022-11-20T06:52:25;2.90;;;2.70;;
11763;SDS011;5939;56.522;14.950;2022-11-20T06:54:52;2.73;;;2.47;;
11763;SDS011;5939;56.522;14.950;2022-11-20T06:57:18;2.60;;;2.40;;
11763;SDS011;5939;56.522;14.950;2022-11-20T06:59:43;2.60;;;2.40;;
11763;SDS011;5939;56.522;14.950;2022-11-20T07:02:10;2.60;;;2.40;;
11763;SDS011;5939;56.522;14.950;2022-11-20T07:04:36;2.50;;;2.30;;
11763;SDS011;5939;56.522;14.950;2022-11-20T07:07:02;2.83;;;2.13;;
11763;SDS011;5939;56.522;14.950;2022-11-20T07:09:28;3.00;;;2.27;;
11763;SDS011;5939;56.522;14.950;2022-11-20T07:11:53;2.80;;;2.40;;
11763;SDS011;5939;56.522;14.950;2022-11-20T07:14:19;3.63;;;2.53;;
11763;SDS011;5939;56.522;14.950;2022-11-20T07:16:44;2.53;;;2.33;;
11763;SDS011;5939;56.522;14.950;2022-11-20T07:19:10;3.20;;;2.60;;
11763;SDS011;5939;56.522;14.950;2022-11-20T07:21:36;3.23;;;2.43;;
11763;SDS011;5939;56.522;14.950;2022-11-20T07:24:02;3.57;;;2.70;;
11763;SDS011;5939;56.522;14.950;2022-11-20T07:26:28;3.43;;;2.73;;
11763;SDS011;5939;56.522;14.950;2022-11-20T07:28:53;4.33;;;3.23;;
11763;SDS011;5939;56.522;14.950;2022-11-20T07:31:19;4.60;;;3.20;;
11763;SDS011;5939;56.522;14.950;2022-11-20T07:33:45;3.90;;;3.50;;
11763;SDS011;5939;56.522;14.950;2022-11-20T07:36:11;4.53;;;4.00;;
11763;SDS011;5939;56.522;14.950;2022-11-20T07:38:37;4.27;;;3.87;;
11763;SDS011;5939;56.522;14.950;2022-11-20T07:41:02;4.60;;;3.80;;
11763;SDS011;5939;56.522;14.950;2022-11-20T07:43:28;4.33;;;3.60;;
11763;SDS011;5939;56.522;14.950;2022-11-20T07:45:55;7.07;;;4.70;;
11763;SDS011;5939;56.522;14.950;2022-11-20T07:48:21;6.63;;;5.70;;
11763;SDS011;5939;56.522;14.950;2022-11-20T07:50:47;6.57;;;5.73;;
11763;SDS011;5939;56.522;14.950;2022-11-20T07:53:13;8.60;;;5.63;;
11763;SDS011;5939;56.522;14.950;2022-11-20T07:55:39;7.80;;;5.77;;
11763;SDS011;5939;56.522;14.950;2022-11-20T07:58:04;7.33;;;5.50;;
11763;SDS011;5939;56.522;14.950;2022-11-20T08:00:30;6.53;;;5.13;;
11763;SDS011;5939;56.522;14.950;2022-11-20T08:02:56;6.77;;;5.23;;
11763;SDS011;5939;56.522;14.950;2022-11-20T08:05:21;5.03;;;4.53;;
11763;SDS011;5939;56.522;14.950;2022-11-20T08:07:47;8.50;;;4.53;;
11763;SDS011;5939;56.522;14.950;2022-11-20T08:10:14;5.33;;;4.70;;
11763;SDS011;5939;56.522;14.950;2022-11-20T08:12:44;5.00;;;4.10;;
11763;SDS011;5939;56.522;14.950;2022-11-20T08:15:32;5.30;;;4.23;;
11763;SDS011;5939;56.522;14.950;2022-11-20T08:18:05;5.57;;;4.43;;
11763;SDS011;5939;56.522;14.950;2022-11-20T08:20:32;4.23;;;3.83;;
11763;SDS011;5939;56.522;14.950;2022-11-20T08:22:59;4.90;;;3.57;;
11763;SDS011;5939;56.522;14.950;2022-11-20T08:25:26;5.03;;;3.90;;
11763;SDS011;5939;56.522;14.950;2022-11-20T08:27:59;4.93;;;3.70;;
11763;SDS011;5939;56.522;14.950;2022-11-20T08:30:25;4.27;;;3.63;;
11763;SDS011;5939;56.522;14.950;2022-11-20T08:32:52;5.07;;;4.00;;
11763;SDS011;5939;56.522;14.950;2022-11-20T08:35:19;4.70;;;4.17;;
11763;SDS011;5939;56.522;14.950;2022-11-20T08:37:48;4.80;;;4.20;;
11763;SDS011;5939;56.522;14.950;2022-11-20T08:40:14;5.20;;;4.50;;
11763;SDS011;5939;56.522;14.950;2022-11-20T08:42:47;6.57;;;4.50;;
11763;SDS011;5939;56.522;14.950;2022-11-20T08:45:16;5.60;;;3.97;;
11763;SDS011;5939;56.522;14.950;2022-11-20T08:47:43;4.90;;;3.53;;
11763;SDS011;5939;56.522;14.950;2022-11-20T08:50:12;6.07;;;4.77;;
11763;SDS011;5939;56.522;14.950;2022-11-20T08:52:39;7.27;;;4.70;;
11763;SDS011;5939;56.522;14.950;2022-11-20T08:55:05;6.87;;;4.33;;
11763;SDS011;5939;56.522;14.950;2022-11-20T08:57:32;6.07;;;4.20;;
11763;SDS011;5939;56.522;14.950;2022-11-20T09:00:02;9.40;;;6.90;;
11763;SDS011;5939;56.522;14.950;2022-11-20T09:02:29;13.17;;;8.87;;
11763;SDS011;5939;56.522;14.950;2022-11-20T09:04:55;11.33;;;7.93;;
11763;SDS011;5939;56.522;14.950;2022-11-20T09:07:21;10.57;;;7.43;;
11763;SDS011;5939;56.522;14.950;2022-11-20T09:09:46;8.63;;;7.10;;
11763;SDS011;5939;56.522;14.950;2022-11-20T09:12:12;7.53;;;5.77;;
11763;SDS011;5939;56.522;14.950;2022-11-20T09:14:38;9.07;;;6.60;;
11763;SDS011;5939;56.522;14.950;2022-11-20T09:17:04;7.97;;;5.80;;
11763;SDS011;5939;56.522;14.950;2022-11-20T09:19:30;7.13;;;5.60;;
11763;SDS011;5939;56.522;14.950;2022-11-20T09:21:55;7.77;;;5.23;;
11763;SDS011;5939;56.522;14.950;2022-11-20T09:24:21;7.10;;;5.10;;
11763;SDS011;5939;56.522;14.950;2022-11-20T09:26:46;6.97;;;4.97;;
11763;SDS011;5939;56.522;14.950;2022-11-20T09:29:12;6.27;;;4.83;;
11763;SDS011;5939;56.522;14.950;2022-11-20T09:31:38;5.87;;;4.77;;
11763;SDS011;5939;56.522;14.950;2022-11-20T09:34:03;6.10;;;4.40;;
11763;SDS011;5939;56.522;14.950;2022-11-20T09:36:29;6.73;;;4.50;;
11763;SDS011;5939;56.522;14.950;2022-11-20T09:38:55;5.77;;;4.63;;
11763;SDS011;5939;56.522;14.950;2022-11-20T09:46:53;5.33;;;3.77;;
11763;SDS011;5939;56.522;14.950;2022-11-20T09:52:31;4.97;;;3.80;;
11763;SDS011;5939;56.522;14.950;2022-11-20T09:55:16;4.67;;;4.10;;
11763;SDS011;5939;56.522;14.950;2022-11-20T09:57:44;5.07;;;4.13;;
11763;SDS011;5939;56.522;14.950;2022-11-20T10:00:12;4.37;;;3.97;;
11763;SDS011;5939;56.522;14.950;2022-11-20T10:02:49;4.90;;;3.73;;
11763;SDS011;5939;56.522;14.950;2022-11-20T10:05:31;5.63;;;3.77;;
11763;SDS011;5939;56.522;14.950;2022-11-20T10:08:19;4.27;;;3.87;;
11763;SDS011;5939;56.522;14.950;2022-11-20T10:10:49;4.77;;;3.93;;
11763;SDS011;5939;56.522;14.950;2022-11-20T10:16:00;4.97;;;3.67;;
11763;SDS011;5939;56.522;14.950;2022-11-20T10:24:25;4.73;;;3.63;;
11763;SDS011;5939;56.522;14.950;2022-11-20T10:27:08;3.80;;;3.37;;
11763;SDS011;5939;56.522;14.950;2022-11-20T10:30:03;4.33;;;3.27;;
11763;SDS011;5939;56.522;14.950;2022-11-20T10:32:44;4.23;;;3.03;;
11763;SDS011;5939;56.522;14.950;2022-11-20T10:38:05;5.10;;;3.50;;
11763;SDS011;5939;56.522;14.950;2022-11-20T10:40:44;4.77;;;4.10;;
11763;SDS011;5939;56.522;14.950;2022-11-20T10:43:14;5.10;;;3.47;;
11763;SDS011;5939;56.522;14.950;2022-11-20T10:45:57;8.17;;;5.83;;
11763;SDS011;5939;56.522;14.950;2022-11-20T10:48:27;17.13;;;11.47;;
11763;SDS011;5939;56.522;14.950;2022-11-20T10:53:50;7.90;;;6.57;;
11763;SDS011;5939;56.522;14.950;2022-11-20T10:56:41;8.97;;;6.10;;
11763;SDS011;5939;56.522;14.950;2022-11-20T11:02:00;7.03;;;6.03;;
11763;SDS011;5939;56.522;14.950;2022-11-20T11:07:17;6.00;;;4.93;;
11763;SDS011;5939;56.522;14.950;2022-11-20T11:09:50;7.27;;;5.57;;
11763;SDS011;5939;56.522;14.950;2022-11-20T11:12:22;5.87;;;4.73;;
11763;SDS011;5939;56.522;14.950;2022-11-20T11:14:51;5.47;;;4.37;;
11763;SDS011;5939;56.522;14.950;2022-11-20T11:17:26;6.00;;;4.50;;
11763;SDS011;5939;56.522;14.950;2022-11-20T11:19:57;5.67;;;4.30;;
11763;SDS011;5939;56.522;14.950;2022-11-20T11:22:28;5.07;;;4.17;;
11763;SDS011;5939;56.522;14.950;2022-11-20T11:24:58;5.13;;;4.00;;
11763;SDS011;5939;56.522;14.950;2022-11-20T11:27:24;4.60;;;4.10;;
11763;SDS011;5939;56.522;14.950;2022-11-20T11:29:50;4.57;;;3.77;;
11763;SDS011;5939;56.522;14.950;2022-11-20T11:32:28;5.93;;;3.93;;
11763;SDS011;5939;56.522;14.950;2022-11-20T11:35:01;6.17;;;4.10;;
11763;SDS011;5939;56.522;14.950;2022-11-20T11:37:32;3.87;;;3.40;;
11763;SDS011;5939;56.522;14.950;2022-11-20T11:40:03;3.80;;;3.40;;
11763;SDS011;5939;56.522;14.950;2022-11-20T11:42:31;4.17;;;3.43;;
11763;SDS011;5939;56.522;14.950;2022-11-20T11:44:59;4.23;;;3.13;;
11763;SDS011;5939;56.522;14.950;2022-11-20T11:47:32;4.63;;;3.50;;
11763;SDS011;5939;56.522;14.950;2022-11-20T12:06:38;4.17;;;3.30;;
11763;SDS011;5939;56.522;14.950;2022-11-20T12:09:10;3.77;;;3.17;;
11763;SDS011;5939;56.522;14.950;2022-11-20T12:14:16;4.03;;;3.33;;
11763;SDS011;5939;56.522;14.950;2022-11-20T12:16:51;3.53;;;2.87;;
11763;SDS011;5939;56.522;14.950;2022-11-20T12:19:18;3.70;;;3.07;;
11763;SDS011;5939;56.522;14.950;2022-11-20T12:30:08;3.13;;;2.83;;
11763;SDS011;5939;56.522;14.950;2022-11-20T12:32:40;2.67;;;2.40;;
11763;SDS011;5939;56.522;14.950;2022-11-20T12:35:28;2.90;;;2.60;;
11763;SDS011;5939;56.522;14.950;2022-11-20T12:43:31;2.97;;;2.67;;
11763;SDS011;5939;56.522;14.950;2022-11-20T12:49:29;2.90;;;2.57;;
11763;SDS011;5939;56.522;14.950;2022-11-20T12:57:36;2.57;;;2.27;;
11763;SDS011;5939;56.522;14.950;2022-11-20T13:00:08;3.17;;;2.50;;
11763;SDS011;5939;56.522;14.950;2022-11-20T13:05:20;3.07;;;2.67;;
11763;SDS011;5939;56.522;14.950;2022-11-20T13:08:02;3.23;;;2.87;;
11763;SDS011;5939;56.522;14.950;2022-11-20T13:10:33;2.60;;;2.40;;
11763;SDS011;5939;56.522;14.950;2022-11-20T13:16:16;2.70;;;2.50;;
11763;SDS011;5939;56.522;14.950;2022-11-20T13:18:51;3.30;;;2.77;;
11763;SDS011;5939;56.522;14.950;2022-11-20T13:21:18;2.90;;;2.63;;
11763;SDS011;5939;56.522;14.950;2022-11-20T13:24:06;2.90;;;2.50;;
11763;SDS011;5939;56.522;14.950;2022-11-20T13:26:32;2.90;;;2.40;;
11763;SDS011;5939;56.522;14.950;2022-11-20T13:28:59;2.43;;;2.23;;
11763;SDS011;5939;56.522;14.950;2022-11-20T13:31:33;2.60;;;2.40;;
11763;SDS011;5939;56.522;14.950;2022-11-20T13:34:02;2.43;;;2.10;;
11763;SDS011;5939;56.522;14.950;2022-11-20T13:36:30;2.10;;;1.90;;
11763;SDS011;5939;56.522;14.950;2022-11-20T13:38:57;2.10;;;1.90;;
11763;SDS011;5939;56.522;14.950;2022-11-20T13:41:33;2.90;;;2.60;;
11763;SDS011;5939;56.522;14.950;2022-11-20T13:46:52;1.97;;;1.80;;
11763;SDS011;5939;56.522;14.950;2022-11-20T13:49:37;2.50;;;2.30;;
11763;SDS011;5939;56.522;14.950;2022-11-20T14:00:07;4.60;;;3.30;;
11763;SDS011;5939;56.522;14.950;2022-11-20T14:02:43;3.97;;;2.87;;
11763;SDS011;5939;56.522;14.950;2022-11-20T14:05:16;3.83;;;2.90;;
11763;SDS011;5939;56.522;14.950;2022-11-20T14:07:47;3.43;;;2.60;;
11763;SDS011;5939;56.522;14.950;2022-11-20T14:12:50;3.30;;;2.70;;
11763;SDS011;5939;56.522;14.950;2022-11-20T14:15:31;3.70;;;3.10;;
11763;SDS011;5939;56.522;14.950;2022-11-20T14:17:59;3.50;;;2.63;;
11763;SDS011;5939;56.522;14.950;2022-11-20T14:20:36;3.40;;;2.63;;
11763;SDS011;5939;56.522;14.950;2022-11-20T14:23:03;3.23;;;2.57;;
11763;SDS011;5939;56.522;14.950;2022-11-20T14:25:30;3.60;;;2.73;;
11763;SDS011;5939;56.522;14.950;2022-11-20T14:27:59;2.40;;;2.20;;
11763;SDS011;5939;56.522;14.950;2022-11-20T14:30:35;2.93;;;2.20;;
11763;SDS011;5939;56.522;14.950;2022-11-20T14:33:10;2.77;;;2.47;;
11763;SDS011;5939;56.522;14.950;2022-11-20T14:35:40;3.97;;;2.50;;
11763;SDS011;5939;56.522;14.950;2022-11-20T14:38:11;2.80;;;2.50;;
11763;SDS011;5939;56.522;14.950;2022-11-20T14:40:42;3.00;;;2.20;;
11763;SDS011;5939;56.522;14.950;2022-11-20T14:43:22;2.77;;;2.27;;
11763;SDS011;5939;56.522;14.950;2022-11-20T14:45:52;2.30;;;2.10;;
11763;SDS011;5939;56.522;14.950;2022-11-20T14:48:29;2.07;;;1.87;;
11763;SDS011;5939;56.522;14.950;2022-11-20T14:51:32;2.17;;;1.80;;
11763;SDS011;5939;56.522;14.950;2022-11-20T14:54:15;2.20;;;2.00;;
11763;SDS011;5939;56.522;14.950;2022-11-20T14:56:56;2.00;;;1.80;;
11763;SDS011;5939;56.522;14.950;2022-11-20T14:59:26;2.37;;;2.17;;
11763;SDS011;5939;56.522;14.950;2022-11-20T15:02:00;2.07;;;1.80;;
11763;SDS011;5939;56.522;14.950;2022-11-20T15:07:22;2.63;;;2.03;;
11763;SDS011;5939;56.522;14.950;2022-11-20T15:09:58;2.73;;;1.93;;
11763;SDS011;5939;56.522;14.950;2022-11-20T15:12:38;2.13;;;1.90;;
11763;SDS011;5939;56.522;14.950;2022-11-20T15:15:12;1.87;;;1.60;;
11763;SDS011;5939;56.522;14.950;2022-11-20T15:17:44;2.53;;;2.00;;
11763;SDS011;5939;56.522;14.950;2022-11-20T15:20:11;2.63;;;1.80;;
11763;SDS011;5939;56.522;14.950;2022-11-20T15:22:40;2.03;;;1.80;;
11763;SDS011;5939;56.522;14.950;2022-11-20T15:25:16;1.90;;;1.80;;
11763;SDS011;5939;56.522;14.950;2022-11-20T15:27:43;2.17;;;1.80;;
11763;SDS011;5939;56.522;14.950;2022-11-20T15:30:13;1.97;;;1.63;;
11763;SDS011;5939;56.522;14.950;2022-11-20T15:32:43;1.93;;;1.60;;
11763;SDS011;5939;56.522;14.950;2022-11-20T15:35:10;2.10;;;1.60;;
11763;SDS011;5939;56.522;14.950;2022-11-20T15:37:38;1.93;;;1.60;;
11763;SDS011;5939;56.522;14.950;2022-11-20T15:40:05;2.00;;;1.70;;
11763;SDS011;5939;56.522;14.950;2022-11-20T15:42:32;2.10;;;1.80;;
11763;SDS011;5939;56.522;14.950;2022-11-20T15:44:58;1.83;;;1.63;;
11763;SDS011;5939;56.522;14.950;2022-11-20T15:47:28;2.13;;;1.70;;
11763;SDS011;5939;56.522;14.950;2022-11-20T15:49:58;1.53;;;1.40;;
11763;SDS011;5939;56.522;14.950;2022-11-20T15:52:24;1.87;;;1.67;;
11763;SDS011;5939;56.522;14.950;2022-11-20T15:54:50;3.07;;;1.60;;
11763;SDS011;5939;56.522;14.950;2022-11-20T15:57:15;1.73;;;1.57;;
11763;SDS011;5939;56.522;14.950;2022-11-20T15:59:41;1.93;;;1.73;;
11763;SDS011;5939;56.522;14.950;2022-11-20T16:02:13;2.30;;;1.70;;
11763;SDS011;5939;56.522;14.950;2022-11-20T16:04:40;1.97;;;1.70;;
11763;SDS011;5939;56.522;14.950;2022-11-20T16:07:06;1.80;;;1.43;;
11763;SDS011;5939;56.522;14.950;2022-11-20T16:09:32;1.63;;;1.50;;
11763;SDS011;5939;56.522;14.950;2022-11-20T16:11:58;1.63;;;1.53;;
11763;SDS011;5939;56.522;14.950;2022-11-20T16:14:24;1.57;;;1.47;;
11763;SDS011;5939;56.522;14.950;2022-11-20T16:17:09;1.53;;;1.43;;
11763;SDS011;5939;56.522;14.950;2022-11-20T16:19:35;2.63;;;1.70;;
11763;SDS011;5939;56.522;14.950;2022-11-20T16:22:00;1.93;;;1.73;;
11763;SDS011;5939;56.522;14.950;2022-11-20T16:24:26;1.67;;;1.47;;
11763;SDS011;5939;56.522;14.950;2022-11-20T16:26:55;2.00;;;1.73;;
11763;SDS011;5939;56.522;14.950;2022-11-20T16:29:21;1.47;;;1.33;;
11763;SDS011;5939;56.522;14.950;2022-11-20T16:31:47;1.90;;;1.50;;